Time;durP1;ratioP1;P1;durP2;ratioP2;P2;SDS_P1;SDS_P2;PMS_P1;PMS_P2;Temp;Humidity;BMP_temperature;BMP_pressure;BME280_temperature;BME280_humidity;BME280_pressure;Samples;Min_cycle;Max_cycle;Signal;HPM_P1;HPM_P2
2022/01/08 00:01:11;;;;;;;2.60;1.73;;;;;;;;;;5070428;28;20490;-72
2022/01/08 00:03:38;;;;;;;3.33;1.47;;;;;;;;;;5071285;28;20456;-71
2022/01/08 00:06:06;;;;;;;3.43;1.50;;;;;;;;;;5070591;28;20441;-71
2022/01/08 00:08:34;;;;;;;2.40;1.50;;;;;;;;;;5071305;28;20441;-70
2022/01/08 00:11:02;;;;;;;2.03;1.67;;;;;;;;;;5071020;28;20457;-71
2022/01/08 00:13:29;;;;;;;3.40;2.17;;;;;;;;;;5070812;28;20532;-71
2022/01/08 00:15:56;;;;;;;2.67;1.90;;;;;;;;;;5071094;28;20445;-71
2022/01/08 00:18:23;;;;;;;1.70;1.60;;;;;;;;;;5070927;28;20452;-71
2022/01/08 00:20:51;;;;;;;1.53;1.20;;;;;;;;;;5070793;28;20493;-71
2022/01/08 00:23:18;;;;;;;2.07;1.53;;;;;;;;;;5070469;28;20450;-71
2022/01/08 00:25:46;;;;;;;3.77;2.10;;;;;;;;;;5071223;28;20528;-71
2022/01/08 00:28:13;;;;;;;2.20;1.57;;;;;;;;;;5070751;28;20546;-72
2022/01/08 00:30:41;;;;;;;2.90;1.60;;;;;;;;;;5070982;28;20508;-71
2022/01/08 00:33:08;;;;;;;1.67;1.20;;;;;;;;;;5069947;28;20540;-71
2022/01/08 00:35:35;;;;;;;2.17;1.43;;;;;;;;;;5070941;28;20473;-71
2022/01/08 00:38:03;;;;;;;1.33;1.10;;;;;;;;;;5071324;28;20468;-73
2022/01/08 00:40:30;;;;;;;2.57;1.43;;;;;;;;;;5070981;28;20997;-73
2022/01/08 00:42:59;;;;;;;2.40;1.93;;;;;;;;;;5070968;28;20492;-71
2022/01/08 00:45:26;;;;;;;1.70;1.13;;;;;;;;;;5069944;28;20532;-72
2022/01/08 00:47:53;;;;;;;1.87;1.67;;;;;;;;;;5070792;28;20549;-73
2022/01/08 00:50:21;;;;;;;1.67;1.10;;;;;;;;;;5070147;28;20445;-71
2022/01/08 00:52:48;;;;;;;3.00;1.40;;;;;;;;;;5070657;28;20465;-73
2022/01/08 00:55:16;;;;;;;2.07;1.57;;;;;;;;;;5070003;28;20937;-73
2022/01/08 00:57:43;;;;;;;1.93;1.10;;;;;;;;;;5070973;28;20451;-73
2022/01/08 01:00:13;;;;;;;1.93;1.77;;;;;;;;;;5070175;28;20452;-72
2022/01/08 01:02:40;;;;;;;3.80;1.40;;;;;;;;;;5072627;28;20478;-71
2022/01/08 01:05:08;;;;;;;2.40;1.43;;;;;;;;;;5074507;28;20444;-71
2022/01/08 01:07:36;;;;;;;1.70;1.33;;;;;;;;;;5074533;28;20530;-71
2022/01/08 01:10:03;;;;;;;2.23;1.70;;;;;;;;;;5074310;28;20812;-68
2022/01/08 01:12:30;;;;;;;1.90;1.60;;;;;;;;;;5074472;28;20906;-72
2022/01/08 01:14:58;;;;;;;1.50;1.20;;;;;;;;;;5074501;28;20479;-72
2022/01/08 01:17:26;;;;;;;1.47;1.37;;;;;;;;;;5073845;28;20449;-71
2022/01/08 01:19:53;;;;;;;2.10;1.73;;;;;;;;;;5074658;28;20967;-71
2022/01/08 01:22:25;;;;;;;2.77;1.67;;;;;;;;;;5073040;28;20993;-71
2022/01/08 01:24:59;;;;;;;3.33;1.30;;;;;;;;;;5074518;28;20450;-71
2022/01/08 01:27:52;;;;;;;1.53;1.43;;;;;;;;;;5073695;28;20451;-71
2022/01/08 01:30:29;;;;;;;2.03;1.50;;;;;;;;;;5073524;28;20449;-72
2022/01/08 01:41:22;;;;;;;2.27;1.70;;;;;;;;;;5073295;28;20536;-71
2022/01/08 01:49:22;;;;;;;2.63;1.60;;;;;;;;;;5073426;28;20421;-72
2022/01/08 01:51:49;;;;;;;2.63;1.80;;;;;;;;;;5073105;28;20833;-71
2022/01/08 01:54:16;;;;;;;1.73;1.27;;;;;;;;;;5073275;28;20942;-72
2022/01/08 01:56:43;;;;;;;1.13;1.00;;;;;;;;;;5073790;28;20475;-72
2022/01/08 01:59:11;;;;;;;1.47;1.30;;;;;;;;;;5073039;28;20445;-72
2022/01/08 02:01:38;;;;;;;2.43;1.50;;;;;;;;;;5073005;28;20561;-71
2022/01/08 02:04:05;;;;;;;2.13;1.40;;;;;;;;;;5072791;28;20460;-71
2022/01/08 02:06:34;;;;;;;2.30;1.10;;;;;;;;;;5060435;28;20441;-70
2022/01/08 02:09:01;;;;;;;2.07;1.87;;;;;;;;;;5073675;28;20459;-71
2022/01/08 02:11:28;;;;;;;2.10;1.17;;;;;;;;;;5073690;28;20445;-71
2022/01/08 02:14:02;;;;;;;1.30;1.10;;;;;;;;;;5071933;28;20539;-71
2022/01/08 02:16:30;;;;;;;3.00;1.63;;;;;;;;;;5073691;28;20456;-71
2022/01/08 02:18:57;;;;;;;1.87;1.47;;;;;;;;;;5073389;28;20745;-71
2022/01/08 02:21:26;;;;;;;1.27;1.00;;;;;;;;;;5072711;28;21008;-72
2022/01/08 02:23:53;;;;;;;2.23;1.40;;;;;;;;;;5072806;28;20484;-73
2022/01/08 02:26:20;;;;;;;8.77;1.10;;;;;;;;;;5072996;28;20446;-72
2022/01/08 02:28:47;;;;;;;4.63;2.43;;;;;;;;;;5073156;28;20806;-71
2022/01/08 02:31:22;;;;;;;2.20;1.43;;;;;;;;;;5072591;28;20445;-72
2022/01/08 02:33:49;;;;;;;1.67;1.17;;;;;;;;;;5072638;28;20452;-71
2022/01/08 02:36:16;;;;;;;2.83;0.87;;;;;;;;;;5072593;28;20448;-71
2022/01/08 02:38:45;;;;;;;2.20;0.80;;;;;;;;;;5072901;28;20472;-71
2022/01/08 02:41:13;;;;;;;1.83;1.00;;;;;;;;;;5071960;28;21004;-71
2022/01/08 02:43:45;;;;;;;1.73;1.00;;;;;;;;;;5072553;28;20536;-71
2022/01/08 02:46:12;;;;;;;1.27;1.03;;;;;;;;;;5072247;28;20804;-74
2022/01/08 02:48:39;;;;;;;0.80;0.80;;;;;;;;;;5072847;28;20474;-71
2022/01/08 02:51:06;;;;;;;1.20;0.77;;;;;;;;;;5072155;28;20554;-71
2022/01/08 02:53:34;;;;;;;2.77;1.17;;;;;;;;;;5072310;28;20481;-72
2022/01/08 02:56:03;;;;;;;3.20;0.87;;;;;;;;;;5072923;28;20532;-71
2022/01/08 02:58:30;;;;;;;1.20;1.00;;;;;;;;;;5060011;28;20521;-71
2022/01/08 03:00:57;;;;;;;2.60;0.80;;;;;;;;;;5071992;28;20941;-71
2022/01/08 03:03:24;;;;;;;3.00;0.83;;;;;;;;;;5071221;28;20450;-72
2022/01/08 03:05:51;;;;;;;1.50;0.97;;;;;;;;;;5072314;28;20539;-71
2022/01/08 03:08:18;;;;;;;2.03;0.80;;;;;;;;;;5072037;28;20454;-71
2022/01/08 03:10:46;;;;;;;1.70;1.17;;;;;;;;;;5072343;28;20441;-72
2022/01/08 03:13:14;;;;;;;2.90;1.30;;;;;;;;;;5071513;28;20473;-71
2022/01/08 03:15:41;;;;;;;1.57;1.10;;;;;;;;;;5072037;28;20451;-71
2022/01/08 03:18:09;;;;;;;2.33;1.07;;;;;;;;;;5071691;28;20483;-71
2022/01/08 03:20:45;;;;;;;1.30;1.07;;;;;;;;;;5072023;28;20452;-73
2022/01/08 03:23:15;;;;;;;1.83;0.90;;;;;;;;;;5070791;28;20448;-71
2022/01/08 03:25:42;;;;;;;1.40;0.83;;;;;;;;;;5071796;28;20449;-71
2022/01/08 03:28:10;;;;;;;4.10;1.50;;;;;;;;;;5071520;28;20445;-71
2022/01/08 03:30:39;;;;;;;1.97;0.80;;;;;;;;;;5071681;28;20449;-71
2022/01/08 03:33:06;;;;;;;1.30;1.00;;;;;;;;;;5070940;28;20449;-71
2022/01/08 03:35:34;;;;;;;2.37;0.90;;;;;;;;;;5071830;28;20458;-70
2022/01/08 03:38:01;;;;;;;1.67;1.10;;;;;;;;;;5071705;28;20445;-71
2022/01/08 03:40:28;;;;;;;6.00;1.80;;;;;;;;;;5071963;28;20540;-71
2022/01/08 03:42:56;;;;;;;1.83;0.90;;;;;;;;;;5071388;28;20507;-71
2022/01/08 03:45:23;;;;;;;1.03;0.90;;;;;;;;;;5071268;28;20850;-71
2022/01/08 03:48:18;;;;;;;1.60;1.07;;;;;;;;;;5071782;28;20868;-71
2022/01/08 03:50:46;;;;;;;1.30;1.20;;;;;;;;;;5071860;28;20812;-71
2022/01/08 03:53:13;;;;;;;2.03;1.93;;;;;;;;;;5070707;28;20465;-71
2022/01/08 03:55:40;;;;;;;2.10;1.30;;;;;;;;;;5071315;28;20460;-72
2022/01/08 03:58:08;;;;;;;2.03;1.43;;;;;;;;;;5071084;28;20471;-73
2022/01/08 04:00:35;;;;;;;1.80;1.43;;;;;;;;;;5071387;28;20446;-71
2022/01/08 04:03:03;;;;;;;1.70;1.37;;;;;;;;;;5071076;28;20858;-71
2022/01/08 04:05:31;;;;;;;1.37;1.27;;;;;;;;;;5071369;28;20453;-71
2022/01/08 04:07:58;;;;;;;2.50;1.40;;;;;;;;;;5071486;28;20810;-71
2022/01/08 04:10:25;;;;;;;1.70;1.50;;;;;;;;;;5070710;28;20937;-71
2022/01/08 04:12:55;;;;;;;2.13;1.90;;;;;;;;;;5070652;28;20452;-71
2022/01/08 04:15:38;;;;;;;2.60;1.77;;;;;;;;;;5071028;28;20820;-71
2022/01/08 04:18:08;;;;;;;1.53;1.40;;;;;;;;;;5070909;28;20507;-70
2022/01/08 04:20:42;;;;;;;2.40;1.70;;;;;;;;;;5071090;28;20459;-70
2022/01/08 04:23:10;;;;;;;1.63;1.27;;;;;;;;;;5070224;28;20480;-70
2022/01/08 04:25:37;;;;;;;2.37;2.00;;;;;;;;;;5070805;28;20455;-70
2022/01/08 04:28:04;;;;;;;2.07;1.87;;;;;;;;;;5070829;28;20540;-70
2022/01/08 04:30:31;;;;;;;2.60;1.70;;;;;;;;;;5071357;28;20455;-70
2022/01/08 04:32:59;;;;;;;1.73;1.13;;;;;;;;;;5070937;28;20458;-71
2022/01/08 04:35:27;;;;;;;3.00;1.47;;;;;;;;;;5070689;28;20495;-70
2022/01/08 04:37:54;;;;;;;5.00;1.63;;;;;;;;;;5073879;28;20933;-70
2022/01/08 04:40:21;;;;;;;3.10;1.80;;;;;;;;;;5074713;28;20450;-71
2022/01/08 04:42:48;;;;;;;2.27;1.80;;;;;;;;;;5074725;28;20487;-72
2022/01/08 04:45:16;;;;;;;4.20;2.37;;;;;;;;;;5074294;28;20450;-72
2022/01/08 04:47:44;;;;;;;2.00;1.53;;;;;;;;;;5075009;28;20442;-71
2022/01/08 04:50:12;;;;;;;3.27;2.20;;;;;;;;;;5074123;28;20457;-70
2022/01/08 04:52:40;;;;;;;2.07;1.23;;;;;;;;;;5074514;28;20472;-69
2022/01/08 04:55:08;;;;;;;2.30;1.47;;;;;;;;;;5074325;28;20445;-68
2022/01/08 04:57:35;;;;;;;2.43;1.50;;;;;;;;;;5074964;28;20449;-67
2022/01/08 05:00:03;;;;;;;3.63;1.77;;;;;;;;;;5075072;28;20445;-66
2022/01/08 05:02:30;;;;;;;1.40;1.30;;;;;;;;;;5073879;28;20618;-67
2022/01/08 05:04:57;;;;;;;1.97;1.67;;;;;;;;;;5075124;28;20878;-67
2022/01/08 05:07:24;;;;;;;2.07;1.50;;;;;;;;;;5073810;28;20451;-67
2022/01/08 05:09:53;;;;;;;2.33;1.60;;;;;;;;;;5074744;28;20449;-67
2022/01/08 05:12:20;;;;;;;2.60;1.50;;;;;;;;;;5073711;28;20452;-67
2022/01/08 05:14:47;;;;;;;0.80;0.80;;;;;;;;;;5074731;28;20452;-68
2022/01/08 05:17:15;;;;;;;2.80;1.67;;;;;;;;;;5073958;28;20508;-67
2022/01/08 05:19:46;;;;;;;1.63;1.53;;;;;;;;;;5074645;28;20450;-67
2022/01/08 05:22:21;;;;;;;2.23;1.77;;;;;;;;;;5073563;28;20489;-68
2022/01/08 05:24:49;;;;;;;1.70;1.43;;;;;;;;;;5074600;28;20441;-67
2022/01/08 05:27:17;;;;;;;1.57;1.47;;;;;;;;;;5073768;28;20445;-67
2022/01/08 05:29:45;;;;;;;2.40;1.87;;;;;;;;;;5074364;28;20524;-67
2022/01/08 05:32:16;;;;;;;2.10;1.47;;;;;;;;;;5073285;28;20868;-67
2022/01/08 05:34:43;;;;;;;2.03;1.83;;;;;;;;;;5074290;28;20457;-67
2022/01/08 05:37:11;;;;;;;2.03;1.33;;;;;;;;;;5073508;28;20456;-67
2022/01/08 05:39:38;;;;;;;2.23;1.30;;;;;;;;;;5073985;28;20446;-68
2022/01/08 05:42:05;;;;;;;1.87;1.10;;;;;;;;;;5073027;28;20495;-68
2022/01/08 05:44:34;;;;;;;1.40;1.27;;;;;;;;;;5074244;28;20541;-68
2022/01/08 05:47:01;;;;;;;1.40;1.10;;;;;;;;;;5073660;28;20456;-67
2022/01/08 05:49:28;;;;;;;1.60;1.40;;;;;;;;;;5073798;28;20495;-67
2022/01/08 05:51:55;;;;;;;1.67;1.10;;;;;;;;;;5072874;28;20999;-67
2022/01/08 05:54:23;;;;;;;2.33;1.37;;;;;;;;;;5073065;28;20685;-68
2022/01/08 05:56:51;;;;;;;1.70;1.10;;;;;;;;;;5060845;28;20532;-68
2022/01/08 05:59:21;;;;;;;2.27;1.30;;;;;;;;;;5073149;28;20534;-67
2022/01/08 06:01:49;;;;;;;1.30;1.17;;;;;;;;;;5073082;28;21058;-69
2022/01/08 06:04:16;;;;;;;1.17;1.00;;;;;;;;;;5073108;28;20457;-68
2022/01/08 06:06:44;;;;;;;0.97;0.83;;;;;;;;;;5073651;28;20858;-67
2022/01/08 06:09:11;;;;;;;0.80;0.60;;;;;;;;;;5072969;28;20457;-67
2022/01/08 06:11:38;;;;;;;1.00;0.70;;;;;;;;;;5073212;28;20453;-68
2022/01/08 06:14:05;;;;;;;0.70;0.50;;;;;;;;;;5072756;28;20471;-67
2022/01/08 06:16:36;;;;;;;0.70;0.60;;;;;;;;;;5073635;28;20453;-67
2022/01/08 06:19:06;;;;;;;1.63;0.77;;;;;;;;;;5073250;28;20456;-66
2022/01/08 06:21:33;;;;;;;0.97;0.70;;;;;;;;;;5073199;28;20449;-69
2022/01/08 06:24:00;;;;;;;0.87;0.50;;;;;;;;;;5073018;28;20484;-68
2022/01/08 06:26:27;;;;;;;0.80;0.50;;;;;;;;;;5072098;28;20455;-69
2022/01/08 06:28:54;;;;;;;1.70;0.63;;;;;;;;;;5072909;28;20880;-68
2022/01/08 06:31:22;;;;;;;0.77;0.70;;;;;;;;;;5071252;28;20438;-67
2022/01/08 06:33:49;;;;;;;0.97;0.70;;;;;;;;;;5072766;28;20450;-69
2022/01/08 06:36:19;;;;;;;0.67;0.57;;;;;;;;;;5072461;28;20467;-68
2022/01/08 06:38:46;;;;;;;1.13;0.67;;;;;;;;;;5073310;28;20441;-68
2022/01/08 06:41:13;;;;;;;0.90;0.60;;;;;;;;;;5071986;28;20542;-68
2022/01/08 06:43:41;;;;;;;0.80;0.63;;;;;;;;;;5072546;28;21016;-69
2022/01/08 06:46:08;;;;;;;0.80;0.70;;;;;;;;;;5072573;28;20454;-68
2022/01/08 06:48:35;;;;;;;0.67;0.50;;;;;;;;;;5072213;28;20934;-68
2022/01/08 06:51:03;;;;;;;1.53;0.77;;;;;;;;;;5072528;28;20566;-66
2022/01/08 06:53:31;;;;;;;0.70;0.60;;;;;;;;;;5071188;28;20479;-69
2022/01/08 06:55:58;;;;;;;0.80;0.70;;;;;;;;;;5072137;28;20964;-69
2022/01/08 06:58:26;;;;;;;1.00;0.57;;;;;;;;;;5071918;28;20457;-69
2022/01/08 07:00:54;;;;;;;0.80;0.73;;;;;;;;;;5071513;28;20820;-68
2022/01/08 07:03:21;;;;;;;1.07;0.60;;;;;;;;;;5063619;28;20996;-69
2022/01/08 07:05:48;;;;;;;1.10;0.80;;;;;;;;;;5072007;28;20441;-67
2022/01/08 07:08:15;;;;;;;0.80;0.50;;;;;;;;;;5071326;28;20459;-67
2022/01/08 07:10:44;;;;;;;1.00;0.80;;;;;;;;;;5071581;28;20491;-68
2022/01/08 07:13:11;;;;;;;0.70;0.50;;;;;;;;;;5071331;28;20455;-69
2022/01/08 07:15:38;;;;;;;2.40;0.70;;;;;;;;;;5071229;28;20450;-68
2022/01/08 07:18:05;;;;;;;0.70;0.60;;;;;;;;;;5071234;28;20442;-67
2022/01/08 07:20:32;;;;;;;1.20;0.93;;;;;;;;;;5072113;28;20482;-68
2022/01/08 07:23:00;;;;;;;1.67;1.13;;;;;;;;;;5071148;28;20556;-68
2022/01/08 07:25:27;;;;;;;1.33;0.80;;;;;;;;;;5070437;28;20445;-67
2022/01/08 07:27:56;;;;;;;1.10;0.90;;;;;;;;;;5072242;28;20445;-67
2022/01/08 07:30:23;;;;;;;1.20;0.80;;;;;;;;;;5071259;28;20823;-67
2022/01/08 07:32:52;;;;;;;1.60;0.83;;;;;;;;;;5071537;28;20458;-68
2022/01/08 07:35:22;;;;;;;1.90;1.20;;;;;;;;;;5071388;28;20455;-70
2022/01/08 07:37:50;;;;;;;0.97;0.80;;;;;;;;;;5071930;28;20449;-70
2022/01/08 07:40:17;;;;;;;1.33;1.13;;;;;;;;;;5070146;28;20937;-69
2022/01/08 07:42:44;;;;;;;1.30;1.13;;;;;;;;;;5071559;28;20481;-70
2022/01/08 07:45:13;;;;;;;1.03;0.93;;;;;;;;;;5072103;28;20553;-67
2022/01/08 07:47:40;;;;;;;2.10;1.30;;;;;;;;;;5071485;28;20448;-68
2022/01/08 07:50:08;;;;;;;1.80;1.17;;;;;;;;;;5070468;28;20460;-68
2022/01/08 07:52:36;;;;;;;2.53;1.27;;;;;;;;;;5070938;28;20481;-68
2022/01/08 07:55:03;;;;;;;2.80;1.30;;;;;;;;;;5070837;28;20857;-66
2022/01/08 07:57:30;;;;;;;1.37;1.27;;;;;;;;;;5071478;28;20854;-68
2022/01/08 07:59:57;;;;;;;1.60;1.50;;;;;;;;;;5071394;28;20446;-69
2022/01/08 08:02:26;;;;;;;1.30;1.17;;;;;;;;;;5069770;28;20450;-68
2022/01/08 08:04:53;;;;;;;1.50;1.40;;;;;;;;;;5070980;28;20458;-67
2022/01/08 08:07:31;;;;;;;2.50;1.30;;;;;;;;;;5070513;28;20956;-68
2022/01/08 08:09:58;;;;;;;1.50;1.17;;;;;;;;;;5070655;28;20509;-68
2022/01/08 08:12:25;;;;;;;3.60;1.87;;;;;;;;;;5069318;28;20445;-68
2022/01/08 08:14:53;;;;;;;27.70;16.93;;;;;;;;;;5070976;28;20449;-67
2022/01/08 08:17:20;;;;;;;2.67;1.57;;;;;;;;;;5070503;28;20523;-68
2022/01/08 08:19:48;;;;;;;2.10;1.60;;;;;;;;;;5070880;28;20449;-69
2022/01/08 08:22:15;;;;;;;3.67;1.93;;;;;;;;;;5069736;28;20933;-68
2022/01/08 08:24:42;;;;;;;2.60;1.53;;;;;;;;;;5070670;28;20492;-68
2022/01/08 08:27:10;;;;;;;3.17;0.97;;;;;;;;;;5070490;28;20453;-68
2022/01/08 08:29:38;;;;;;;2.93;1.63;;;;;;;;;;5070665;28;20540;-67
2022/01/08 08:32:05;;;;;;;1.50;1.20;;;;;;;;;;5069910;28;20453;-68
2022/01/08 08:34:33;;;;;;;2.50;1.20;;;;;;;;;;5070973;28;20456;-68
2022/01/08 08:37:01;;;;;;;0.87;0.80;;;;;;;;;;5071069;28;20453;-68
2022/01/08 08:39:28;;;;;;;2.27;1.50;;;;;;;;;;5071458;28;20481;-69
2022/01/08 08:41:56;;;;;;;1.90;1.17;;;;;;;;;;5070524;28;20450;-69
2022/01/08 08:44:23;;;;;;;2.53;1.67;;;;;;;;;;5070457;28;20516;-73
2022/01/08 08:46:50;;;;;;;1.13;1.03;;;;;;;;;;5069945;28;20532;-70
2022/01/08 08:49:18;;;;;;;1.77;1.23;;;;;;;;;;5070630;28;20442;-71
2022/01/08 08:51:45;;;;;;;4.50;1.03;;;;;;;;;;5070505;28;20476;-70
2022/01/08 08:54:13;;;;;;;1.87;1.00;;;;;;;;;;5070482;28;20449;-70
2022/01/08 08:56:42;;;;;;;1.73;1.07;;;;;;;;;;5070561;28;20437;-71
2022/01/08 08:59:09;;;;;;;2.33;1.10;;;;;;;;;;5057692;28;20604;-69
2022/01/08 09:01:37;;;;;;;1.97;1.03;;;;;;;;;;5070016;28;20536;-66
2022/01/08 09:04:04;;;;;;;1.60;0.90;;;;;;;;;;5070319;28;20485;-69
2022/01/08 09:06:31;;;;;;;1.70;0.80;;;;;;;;;;5070638;28;20477;-70
2022/01/08 09:08:58;;;;;;;2.20;1.20;;;;;;;;;;5070914;28;20531;-70
2022/01/08 09:11:27;;;;;;;1.30;1.07;;;;;;;;;;5057300;28;20452;-70
2022/01/08 09:13:54;;;;;;;1.63;1.07;;;;;;;;;;5070864;28;20571;-70
2022/01/08 09:16:21;;;;;;;3.90;1.80;;;;;;;;;;5069857;28;20448;-67
2022/01/08 09:18:49;;;;;;;1.80;1.23;;;;;;;;;;5070037;28;20442;-69
2022/01/08 09:21:16;;;;;;;1.53;1.37;;;;;;;;;;5069625;28;20451;-70
2022/01/08 09:23:43;;;;;;;1.20;1.10;;;;;;;;;;5072624;28;20480;-69
2022/01/08 09:26:10;;;;;;;4.40;1.77;;;;;;;;;;5073122;28;20456;-69
2022/01/08 09:28:39;;;;;;;5.70;1.20;;;;;;;;;;5073748;28;20445;-70
2022/01/08 09:31:06;;;;;;;2.23;1.17;;;;;;;;;;5072805;28;20445;-69
2022/01/08 09:33:34;;;;;;;1.83;1.57;;;;;;;;;;5073926;28;20488;-69
2022/01/08 09:36:01;;;;;;;2.40;1.30;;;;;;;;;;5073434;28;20450;-70
2022/01/08 09:38:28;;;;;;;2.73;1.23;;;;;;;;;;5074238;28;20536;-70
2022/01/08 09:40:55;;;;;;;6.60;1.70;;;;;;;;;;5073601;28;20449;-70
2022/01/08 09:43:23;;;;;;;1.37;1.27;;;;;;;;;;5072448;28;20890;-70
2022/01/08 09:45:51;;;;;;;1.70;1.37;;;;;;;;;;5073022;28;20446;-70
2022/01/08 09:48:19;;;;;;;1.33;1.10;;;;;;;;;;5072659;28;20452;-70
2022/01/08 09:50:46;;;;;;;2.00;1.60;;;;;;;;;;5073487;28;20548;-69
2022/01/08 09:53:13;;;;;;;1.57;1.20;;;;;;;;;;5073237;28;20483;-70
2022/01/08 09:55:40;;;;;;;2.33;1.07;;;;;;;;;;5072711;28;20442;-72
2022/01/08 09:58:09;;;;;;;1.40;1.30;;;;;;;;;;5072916;28;20931;-68
2022/01/08 10:00:37;;;;;;;1.67;1.23;;;;;;;;;;5073492;28;20440;-69
2022/01/08 10:03:16;;;;;;;5.13;1.43;;;;;;;;;;5072125;28;20548;-70
2022/01/08 10:05:47;;;;;;;2.07;1.20;;;;;;;;;;5072833;28;20437;-70
2022/01/08 10:08:15;;;;;;;2.27;1.20;;;;;;;;;;5072617;28;20469;-71
2022/01/08 10:10:54;;;;;;;5.00;2.70;;;;;;;;;;5072982;28;20454;-70
2022/01/08 10:13:23;;;;;;;2.57;1.30;;;;;;;;;;5073107;28;20445;-69
2022/01/08 10:18:38;;;;;;;1.90;1.53;;;;;;;;;;5073112;28;20463;-70
2022/01/08 10:21:20;;;;;;;4.90;1.40;;;;;;;;;;5072718;28;20449;-69
2022/01/08 10:23:49;;;;;;;2.57;1.23;;;;;;;;;;5071132;28;20482;-69
2022/01/08 10:26:17;;;;;;;1.33;1.20;;;;;;;;;;5072452;28;20445;-70
2022/01/08 10:28:45;;;;;;;2.07;1.20;;;;;;;;;;5072936;28;20500;-71
2022/01/08 10:31:17;;;;;;;1.50;1.20;;;;;;;;;;5072212;28;20454;-70
2022/01/08 10:33:48;;;;;;;1.87;1.70;;;;;;;;;;5072062;28;20540;-70
2022/01/08 10:36:16;;;;;;;3.53;1.50;;;;;;;;;;5071797;28;20448;-70
2022/01/08 10:38:43;;;;;;;3.20;1.50;;;;;;;;;;5072737;28;20454;-70
2022/01/08 10:41:15;;;;;;;1.83;1.40;;;;;;;;;;5072250;28;20950;-70
2022/01/08 10:43:42;;;;;;;3.03;1.10;;;;;;;;;;5072444;28;20553;-70
2022/01/08 10:46:10;;;;;;;3.03;1.30;;;;;;;;;;5072050;28;20865;-70
2022/01/08 10:48:37;;;;;;;3.17;1.30;;;;;;;;;;5072646;28;20496;-70
2022/01/08 10:51:17;;;;;;;2.50;1.67;;;;;;;;;;5072030;28;20552;-70
2022/01/08 10:54:02;;;;;;;1.83;1.03;;;;;;;;;;5075768;28;20455;-70
2022/01/08 10:56:30;;;;;;;1.73;1.20;;;;;;;;;;5074026;28;20433;-68
2022/01/08 10:58:59;;;;;;;3.20;1.43;;;;;;;;;;5072099;28;20442;-68
2022/01/08 11:01:46;;;;;;;3.50;1.60;;;;;;;;;;5070209;28;21028;-69
2022/01/08 11:04:14;;;;;;;1.83;0.80;;;;;;;;;;5064561;28;20560;-68
2022/01/08 11:06:53;;;;;;;3.17;1.30;;;;;;;;;;5069600;28;20983;-69
2022/01/08 11:09:20;;;;;;;1.77;1.43;;;;;;;;;;5068948;28;20447;-69
2022/01/08 11:11:49;;;;;;;3.30;1.83;;;;;;;;;;5069972;28;20442;-69
2022/01/08 11:14:24;;;;;;;1.80;1.20;;;;;;;;;;5068702;28;20495;-68
2022/01/08 11:16:52;;;;;;;1.97;1.20;;;;;;;;;;5070072;28;20463;-69
2022/01/08 11:19:19;;;;;;;2.30;1.27;;;;;;;;;;5068787;28;20457;-68
2022/01/08 11:21:48;;;;;;;1.57;0.90;;;;;;;;;;5067743;28;20448;-68
2022/01/08 11:24:18;;;;;;;3.70;1.37;;;;;;;;;;5068253;28;20489;-68
2022/01/08 11:26:48;;;;;;;2.97;1.27;;;;;;;;;;5069153;28;20458;-68
2022/01/08 11:29:16;;;;;;;1.77;1.60;;;;;;;;;;5069022;28;20476;-69
2022/01/08 11:31:43;;;;;;;5.17;1.30;;;;;;;;;;5069701;28;20532;-69
2022/01/08 11:34:12;;;;;;;2.03;1.13;;;;;;;;;;5068274;28;20940;-69
2022/01/08 11:36:40;;;;;;;1.77;1.43;;;;;;;;;;5069224;28;20856;-69
2022/01/08 11:39:09;;;;;;;2.23;1.40;;;;;;;;;;5055392;28;20543;-70
2022/01/08 11:41:38;;;;;;;5.03;1.90;;;;;;;;;;5069184;28;20453;-69
2022/01/08 11:44:06;;;;;;;5.00;1.77;;;;;;;;;;5068391;28;20489;-68
2022/01/08 11:46:34;;;;;;;6.40;1.90;;;;;;;;;;5068909;28;20446;-68
2022/01/08 11:49:02;;;;;;;1.30;1.00;;;;;;;;;;5069281;28;20817;-69
2022/01/08 11:51:31;;;;;;;2.70;1.47;;;;;;;;;;5068848;28;20476;-69
2022/01/08 11:53:59;;;;;;;3.53;1.20;;;;;;;;;;5069029;28;20467;-69
2022/01/08 11:56:27;;;;;;;1.63;1.33;;;;;;;;;;5068255;28;20453;-69
2022/01/08 11:59:04;;;;;;;1.73;1.13;;;;;;;;;;5069021;28;20450;-69
2022/01/08 12:01:31;;;;;;;2.80;1.10;;;;;;;;;;5068649;28;20445;-69
2022/01/08 12:03:58;;;;;;;1.70;1.33;;;;;;;;;;5068724;28;20485;-68
2022/01/08 12:06:35;;;;;;;3.00;1.37;;;;;;;;;;5068107;28;20441;-68
2022/01/08 12:09:18;;;;;;;2.20;1.00;;;;;;;;;;5068892;28;20839;-69
2022/01/08 12:12:00;;;;;;;1.43;1.33;;;;;;;;;;5068814;28;20827;-69
2022/01/08 12:14:30;;;;;;;2.73;1.03;;;;;;;;;;5066477;28;20466;-69
2022/01/08 12:16:58;;;;;;;2.30;2.03;;;;;;;;;;5068420;28;20449;-68
2022/01/08 12:19:29;;;;;;;2.53;1.10;;;;;;;;;;5067714;28;20453;-68
2022/01/08 12:21:56;;;;;;;1.67;1.10;;;;;;;;;;5068376;28;20455;-68
2022/01/08 12:24:33;;;;;;;1.77;1.00;;;;;;;;;;5067217;28;20503;-68
2022/01/08 12:27:02;;;;;;;5.17;1.60;;;;;;;;;;5068571;28;20810;-68
2022/01/08 12:29:37;;;;;;;1.17;0.97;;;;;;;;;;5068966;28;20825;-70
2022/01/08 12:32:24;;;;;;;2.30;1.33;;;;;;;;;;5068255;28;21176;-68
2022/01/08 12:35:00;;;;;;;3.37;1.37;;;;;;;;;;5067748;28;20455;-68
2022/01/08 12:37:36;;;;;;;2.60;2.40;;;;;;;;;;5067547;28;20448;-68
2022/01/08 12:40:04;;;;;;;2.37;1.40;;;;;;;;;;5068482;28;20443;-69
2022/01/08 12:42:42;;;;;;;1.97;1.30;;;;;;;;;;5068792;28;20540;-69
2022/01/08 12:45:12;;;;;;;2.40;1.10;;;;;;;;;;5067820;28;20863;-69
2022/01/08 12:47:46;;;;;;;1.27;1.10;;;;;;;;;;5068797;28;20796;-70
2022/01/08 12:50:20;;;;;;;1.80;1.33;;;;;;;;;;5067824;28;20454;-69
2022/01/08 12:53:06;;;;;;;1.37;1.27;;;;;;;;;;5068221;28;20480;-69
2022/01/08 12:55:33;;;;;;;7.50;2.20;;;;;;;;;;5056876;28;21024;-67
2022/01/08 12:58:01;;;;;;;2.40;1.30;;;;;;;;;;5066835;28;20446;-68
2022/01/08 13:00:29;;;;;;;3.77;1.40;;;;;;;;;;5071784;28;20453;-71
2022/01/08 13:02:56;;;;;;;1.30;1.20;;;;;;;;;;5071741;28;20447;-69
2022/01/08 13:05:24;;;;;;;2.00;1.23;;;;;;;;;;5071120;28;20572;-68
2022/01/08 13:07:51;;;;;;;5.03;1.27;;;;;;;;;;5071711;28;20457;-68
2022/01/08 13:10:18;;;;;;;4.20;1.50;;;;;;;;;;5071208;28;20452;-70
2022/01/08 13:12:59;;;;;;;1.90;1.10;;;;;;;;;;5071628;28;20805;-69
2022/01/08 13:15:31;;;;;;;1.73;1.20;;;;;;;;;;5070762;28;20448;-70
2022/01/08 13:18:16;;;;;;;1.10;1.00;;;;;;;;;;5059269;28;20469;-70
2022/01/08 13:20:43;;;;;;;1.97;1.00;;;;;;;;;;5069319;28;20543;-67
2022/01/08 13:23:11;;;;;;;2.00;1.40;;;;;;;;;;5071427;28;20449;-70
2022/01/08 13:25:38;;;;;;;3.23;1.90;;;;;;;;;;5070994;28;21003;-70
2022/01/08 13:28:05;;;;;;;2.53;1.43;;;;;;;;;;5070356;28;20471;-70
2022/01/08 13:30:36;;;;;;;1.60;1.20;;;;;;;;;;5071714;28;20444;-70
2022/01/08 13:33:04;;;;;;;2.03;1.23;;;;;;;;;;5071052;28;20449;-69
2022/01/08 13:35:33;;;;;;;1.33;1.03;;;;;;;;;;5069460;28;20480;-69
2022/01/08 13:38:00;;;;;;;2.17;1.43;;;;;;;;;;5071149;28;20800;-70
2022/01/08 13:40:28;;;;;;;1.30;1.10;;;;;;;;;;5070291;28;20948;-71
2022/01/08 13:42:55;;;;;;;3.27;1.83;;;;;;;;;;5071376;28;20964;-71
2022/01/08 13:45:22;;;;;;;1.83;0.97;;;;;;;;;;5070078;28;20489;-70
2022/01/08 13:47:52;;;;;;;2.47;1.20;;;;;;;;;;5070929;28;20459;-68
2022/01/08 13:50:22;;;;;;;1.90;1.30;;;;;;;;;;5059585;28;20468;-72
2022/01/08 13:52:52;;;;;;;1.73;1.40;;;;;;;;;;5070691;28;20476;-69
2022/01/08 13:55:21;;;;;;;2.23;1.60;;;;;;;;;;5070566;28;20524;-71
2022/01/08 13:57:52;;;;;;;1.73;1.40;;;;;;;;;;5070979;28;20445;-69
2022/01/08 14:00:21;;;;;;;2.80;1.40;;;;;;;;;;5077611;28;20438;-69
2022/01/08 14:02:50;;;;;;;2.30;1.50;;;;;;;;;;5074865;28;20449;-71
2022/01/08 14:05:18;;;;;;;3.20;1.90;;;;;;;;;;5070009;28;21028;-71
2022/01/08 14:07:46;;;;;;;11.43;2.10;;;;;;;;;;5070976;28;20579;-72
2022/01/08 14:10:14;;;;;;;4.03;1.10;;;;;;;;;;5067991;28;20453;-71
2022/01/08 14:12:41;;;;;;;2.93;1.70;;;;;;;;;;5070076;28;20576;-70
2022/01/08 14:15:08;;;;;;;2.00;1.10;;;;;;;;;;5069871;28;20549;-69
2022/01/08 14:17:36;;;;;;;1.90;1.33;;;;;;;;;;5070149;28;20965;-71
2022/01/08 14:20:05;;;;;;;2.20;1.37;;;;;;;;;;5067358;28;20990;-67
2022/01/08 14:22:33;;;;;;;1.97;1.33;;;;;;;;;;5069929;28;20457;-69
2022/01/08 14:25:00;;;;;;;4.30;1.50;;;;;;;;;;5069743;28;20503;-70
2022/01/08 14:27:28;;;;;;;1.07;0.97;;;;;;;;;;5069737;28;20457;-70
2022/01/08 14:30:09;;;;;;;2.30;1.23;;;;;;;;;;5069544;28;20458;-69
2022/01/08 14:32:37;;;;;;;2.43;1.20;;;;;;;;;;5067980;28;20463;-69
2022/01/08 14:35:04;;;;;;;3.80;1.27;;;;;;;;;;5069111;28;20471;-69
2022/01/08 14:37:33;;;;;;;2.07;1.70;;;;;;;;;;5069768;28;20464;-69
2022/01/08 14:40:14;;;;;;;1.00;0.90;;;;;;;;;;5070316;28;20460;-70
2022/01/08 14:42:41;;;;;;;1.83;1.20;;;;;;;;;;5070289;28;20441;-70
2022/01/08 14:45:08;;;;;;;1.40;1.27;;;;;;;;;;5069313;28;20481;-70
2022/01/08 14:47:37;;;;;;;1.87;1.40;;;;;;;;;;5069510;28;20452;-70
2022/01/08 14:50:05;;;;;;;2.10;1.53;;;;;;;;;;5068652;28;20963;-70
2022/01/08 14:52:33;;;;;;;1.83;1.23;;;;;;;;;;5068698;28;20985;-70
2022/01/08 14:55:02;;;;;;;1.27;1.17;;;;;;;;;;5069865;28;20449;-70
2022/01/08 14:57:29;;;;;;;1.60;1.13;;;;;;;;;;5070144;28;20820;-69
2022/01/08 14:59:56;;;;;;;1.87;1.07;;;;;;;;;;5069255;28;20972;-70
2022/01/08 15:02:24;;;;;;;7.03;1.57;;;;;;;;;;5068448;28;20441;-68
2022/01/08 15:04:51;;;;;;;1.53;1.43;;;;;;;;;;5069219;28;20996;-68
2022/01/08 15:07:18;;;;;;;1.57;1.40;;;;;;;;;;5068556;28;20464;-68
2022/01/08 15:09:45;;;;;;;1.10;0.90;;;;;;;;;;5069056;28;20492;-69